METAR Data
IDs: Format: Raw Decoded Include TAF

Data at: 2159 UTC 01 Dec 2021

METAR for:KFWA (Fort Wayne Intl, IN, US)
Text:KFWA 012154Z 00000KT 6SM BR FEW012 OVC027 06/05 A2988 RMK AO2 SLP125 T00610050 $
Temperature: 6.1°C ( 43°F)
Dewpoint: 5.0°C ( 41°F) [RH = 93%]
Pressure (altimeter):29.88 inches Hg (1011.9 mb) [Sea level pressure: 1012.5 mb]
Winds:calm
Visibility: 6 sm ( 10 km)
Ceiling:2700 feet AGL
Clouds: few clouds at 1200 feet AGL, overcast cloud deck at 2700 feet AGL
Weather:BR (mist)
QC Flag:SOME DATA ABOVE MAY BE INACCURATE!!!"$" is an indication the sensor requires maintenance.